sensor_id;sensor_type;location;lat;lon;timestamp;P1;durP1;ratioP1;P2;durP2;ratioP2
44110;SDS011;29774;52.664;5.074;2023-08-01T00:01:31;8.00;;;3.05;;
44110;SDS011;29774;52.664;5.074;2023-08-01T00:03:57;14.82;;;3.95;;
44110;SDS011;29774;52.664;5.074;2023-08-01T00:06:23;8.52;;;3.70;;
44110;SDS011;29774;52.664;5.074;2023-08-01T00:08:50;7.38;;;2.97;;
44110;SDS011;29774;52.664;5.074;2023-08-01T00:11:16;8.00;;;2.97;;
44110;SDS011;29774;52.664;5.074;2023-08-01T00:13:41;4.05;;;2.33;;
44110;SDS011;29774;52.664;5.074;2023-08-01T00:16:08;12.10;;;3.45;;
44110;SDS011;29774;52.664;5.074;2023-08-01T00:18:34;9.10;;;3.05;;
44110;SDS011;29774;52.664;5.074;2023-08-01T00:21:00;6.93;;;2.78;;
44110;SDS011;29774;52.664;5.074;2023-08-01T00:23:26;7.03;;;3.40;;
44110;SDS011;29774;52.664;5.074;2023-08-01T00:25:52;8.25;;;3.80;;
44110;SDS011;29774;52.664;5.074;2023-08-01T00:28:17;8.00;;;2.88;;
44110;SDS011;29774;52.664;5.074;2023-08-01T00:30:43;8.40;;;2.67;;
44110;SDS011;29774;52.664;5.074;2023-08-01T00:33:09;8.30;;;3.38;;
44110;SDS011;29774;52.664;5.074;2023-08-01T00:35:35;4.95;;;3.10;;
44110;SDS011;29774;52.664;5.074;2023-08-01T00:38:00;9.70;;;3.40;;
44110;SDS011;29774;52.664;5.074;2023-08-01T00:40:32;7.82;;;3.17;;
44110;SDS011;29774;52.664;5.074;2023-08-01T00:42:58;6.13;;;2.97;;
44110;SDS011;29774;52.664;5.074;2023-08-01T00:45:27;4.35;;;2.42;;
44110;SDS011;29774;52.664;5.074;2023-08-01T00:47:54;10.88;;;3.17;;
44110;SDS011;29774;52.664;5.074;2023-08-01T00:50:21;7.45;;;3.15;;
44110;SDS011;29774;52.664;5.074;2023-08-01T00:52:47;8.40;;;3.75;;
44110;SDS011;29774;52.664;5.074;2023-08-01T00:55:15;10.20;;;3.15;;
44110;SDS011;29774;52.664;5.074;2023-08-01T00:57:42;9.05;;;3.08;;
44110;SDS011;29774;52.664;5.074;2023-08-01T01:00:08;8.52;;;3.05;;
44110;SDS011;29774;52.664;5.074;2023-08-01T01:02:35;8.35;;;2.88;;
44110;SDS011;29774;52.664;5.074;2023-08-01T01:05:01;7.28;;;3.20;;
44110;SDS011;29774;52.664;5.074;2023-08-01T01:07:27;5.15;;;2.45;;
44110;SDS011;29774;52.664;5.074;2023-08-01T01:09:55;7.93;;;3.17;;
44110;SDS011;29774;52.664;5.074;2023-08-01T01:12:21;4.10;;;2.22;;
44110;SDS011;29774;52.664;5.074;2023-08-01T01:14:47;6.72;;;3.30;;
44110;SDS011;29774;52.664;5.074;2023-08-01T01:17:13;4.60;;;2.22;;
44110;SDS011;29774;52.664;5.074;2023-08-01T01:19:38;8.35;;;3.25;;
44110;SDS011;29774;52.664;5.074;2023-08-01T01:22:04;5.40;;;2.55;;
44110;SDS011;29774;52.664;5.074;2023-08-01T01:24:31;6.05;;;2.80;;
44110;SDS011;29774;52.664;5.074;2023-08-01T01:26:58;5.93;;;3.05;;
44110;SDS011;29774;52.664;5.074;2023-08-01T01:29:25;9.68;;;3.45;;
44110;SDS011;29774;52.664;5.074;2023-08-01T01:31:52;9.18;;;3.72;;
44110;SDS011;29774;52.664;5.074;2023-08-01T01:34:18;8.27;;;3.15;;
44110;SDS011;29774;52.664;5.074;2023-08-01T01:36:44;6.20;;;2.60;;
44110;SDS011;29774;52.664;5.074;2023-08-01T01:39:10;11.20;;;3.10;;
44110;SDS011;29774;52.664;5.074;2023-08-01T01:41:35;4.55;;;2.40;;
44110;SDS011;29774;52.664;5.074;2023-08-01T01:44:01;4.30;;;2.40;;
44110;SDS011;29774;52.664;5.074;2023-08-01T01:46:26;5.85;;;2.47;;
44110;SDS011;29774;52.664;5.074;2023-08-01T01:48:52;4.47;;;2.47;;
44110;SDS011;29774;52.664;5.074;2023-08-01T01:51:19;4.72;;;2.25;;
44110;SDS011;29774;52.664;5.074;2023-08-01T01:53:46;3.80;;;1.85;;
44110;SDS011;29774;52.664;5.074;2023-08-01T01:56:11;4.43;;;1.85;;
44110;SDS011;29774;52.664;5.074;2023-08-01T01:58:37;3.80;;;2.28;;
44110;SDS011;29774;52.664;5.074;2023-08-01T02:01:02;4.15;;;1.83;;
44110;SDS011;29774;52.664;5.074;2023-08-01T02:03:28;2.63;;;1.50;;
44110;SDS011;29774;52.664;5.074;2023-08-01T02:05:54;3.03;;;1.80;;
44110;SDS011;29774;52.664;5.074;2023-08-01T02:08:19;2.58;;;1.67;;
44110;SDS011;29774;52.664;5.074;2023-08-01T02:10:45;3.65;;;1.45;;
44110;SDS011;29774;52.664;5.074;2023-08-01T02:13:10;3.50;;;1.40;;
44110;SDS011;29774;52.664;5.074;2023-08-01T02:15:36;3.03;;;1.23;;
44110;SDS011;29774;52.664;5.074;2023-08-01T02:18:01;2.35;;;0.93;;
44110;SDS011;29774;52.664;5.074;2023-08-01T02:20:27;2.90;;;0.80;;
44110;SDS011;29774;52.664;5.074;2023-08-01T02:22:54;1.92;;;0.85;;
44110;SDS011;29774;52.664;5.074;2023-08-01T02:25:19;3.50;;;0.82;;
44110;SDS011;29774;52.664;5.074;2023-08-01T02:27:45;2.33;;;1.60;;
44110;SDS011;29774;52.664;5.074;2023-08-01T02:30:11;2.10;;;0.90;;
44110;SDS011;29774;52.664;5.074;2023-08-01T02:32:36;3.30;;;0.63;;
44110;SDS011;29774;52.664;5.074;2023-08-01T02:35:02;1.85;;;1.05;;
44110;SDS011;29774;52.664;5.074;2023-08-01T02:37:28;2.45;;;0.90;;
44110;SDS011;29774;52.664;5.074;2023-08-01T02:39:53;3.55;;;0.90;;
44110;SDS011;29774;52.664;5.074;2023-08-01T02:42:19;3.00;;;0.80;;
44110;SDS011;29774;52.664;5.074;2023-08-01T02:44:44;4.22;;;0.80;;
44110;SDS011;29774;52.664;5.074;2023-08-01T02:47:10;2.38;;;0.80;;
44110;SDS011;29774;52.664;5.074;2023-08-01T02:49:36;2.08;;;0.57;;
44110;SDS011;29774;52.664;5.074;2023-08-01T02:52:01;2.28;;;0.85;;
44110;SDS011;29774;52.664;5.074;2023-08-01T02:54:27;2.15;;;0.90;;
44110;SDS011;29774;52.664;5.074;2023-08-01T02:56:53;2.78;;;1.10;;
44110;SDS011;29774;52.664;5.074;2023-08-01T02:59:18;3.10;;;0.85;;
44110;SDS011;29774;52.664;5.074;2023-08-01T03:01:44;3.65;;;0.90;;
44110;SDS011;29774;52.664;5.074;2023-08-01T03:04:09;3.03;;;0.60;;
44110;SDS011;29774;52.664;5.074;2023-08-01T03:06:39;2.67;;;0.80;;
44110;SDS011;29774;52.664;5.074;2023-08-01T03:09:04;1.95;;;0.70;;
44110;SDS011;29774;52.664;5.074;2023-08-01T03:11:33;1.35;;;0.73;;
44110;SDS011;29774;52.664;5.074;2023-08-01T03:14:00;4.78;;;0.88;;
44110;SDS011;29774;52.664;5.074;2023-08-01T03:16:26;3.10;;;1.05;;
44110;SDS011;29774;52.664;5.074;2023-08-01T03:18:51;5.07;;;1.55;;
44110;SDS011;29774;52.664;5.074;2023-08-01T03:21:17;3.28;;;1.00;;
44110;SDS011;29774;52.664;5.074;2023-08-01T03:23:43;4.63;;;1.00;;
44110;SDS011;29774;52.664;5.074;2023-08-01T03:26:09;6.30;;;1.70;;
44110;SDS011;29774;52.664;5.074;2023-08-01T03:28:34;2.50;;;1.05;;
44110;SDS011;29774;52.664;5.074;2023-08-01T03:31:00;3.80;;;0.88;;
44110;SDS011;29774;52.664;5.074;2023-08-01T03:33:26;3.30;;;1.45;;
44110;SDS011;29774;52.664;5.074;2023-08-01T03:35:52;3.22;;;0.90;;
44110;SDS011;29774;52.664;5.074;2023-08-01T03:38:17;1.17;;;0.73;;
44110;SDS011;29774;52.664;5.074;2023-08-01T03:40:43;1.45;;;0.70;;
44110;SDS011;29774;52.664;5.074;2023-08-01T03:43:08;1.95;;;0.85;;
44110;SDS011;29774;52.664;5.074;2023-08-01T03:45:35;5.15;;;1.27;;
44110;SDS011;29774;52.664;5.074;2023-08-01T03:48:01;3.90;;;0.82;;
44110;SDS011;29774;52.664;5.074;2023-08-01T03:50:26;1.38;;;0.70;;
44110;SDS011;29774;52.664;5.074;2023-08-01T03:52:52;4.07;;;1.00;;
44110;SDS011;29774;52.664;5.074;2023-08-01T03:55:18;1.25;;;0.77;;
44110;SDS011;29774;52.664;5.074;2023-08-01T03:57:43;6.40;;;1.02;;
44110;SDS011;29774;52.664;5.074;2023-08-01T04:00:09;2.00;;;0.93;;
44110;SDS011;29774;52.664;5.074;2023-08-01T04:02:41;3.22;;;0.68;;
44110;SDS011;29774;52.664;5.074;2023-08-01T04:05:07;2.20;;;0.70;;
44110;SDS011;29774;52.664;5.074;2023-08-01T04:07:34;3.53;;;0.75;;
44110;SDS011;29774;52.664;5.074;2023-08-01T04:10:03;2.83;;;0.90;;
44110;SDS011;29774;52.664;5.074;2023-08-01T04:12:30;3.15;;;0.90;;
44110;SDS011;29774;52.664;5.074;2023-08-01T04:14:57;4.05;;;0.93;;
44110;SDS011;29774;52.664;5.074;2023-08-01T04:17:22;3.17;;;0.85;;
44110;SDS011;29774;52.664;5.074;2023-08-01T04:19:48;3.47;;;0.90;;
44110;SDS011;29774;52.664;5.074;2023-08-01T04:22:13;1.48;;;0.63;;
44110;SDS011;29774;52.664;5.074;2023-08-01T04:24:39;2.60;;;0.80;;
44110;SDS011;29774;52.664;5.074;2023-08-01T04:27:05;1.42;;;0.65;;
44110;SDS011;29774;52.664;5.074;2023-08-01T04:29:30;2.35;;;0.90;;
44110;SDS011;29774;52.664;5.074;2023-08-01T04:31:56;1.90;;;0.50;;
44110;SDS011;29774;52.664;5.074;2023-08-01T04:34:22;1.50;;;0.60;;
44110;SDS011;29774;52.664;5.074;2023-08-01T04:36:48;3.35;;;1.05;;
44110;SDS011;29774;52.664;5.074;2023-08-01T04:39:14;2.35;;;0.82;;
44110;SDS011;29774;52.664;5.074;2023-08-01T04:41:39;2.10;;;0.73;;
44110;SDS011;29774;52.664;5.074;2023-08-01T04:44:05;4.30;;;1.48;;
44110;SDS011;29774;52.664;5.074;2023-08-01T04:46:31;2.78;;;1.00;;
44110;SDS011;29774;52.664;5.074;2023-08-01T04:48:57;4.47;;;1.00;;
44110;SDS011;29774;52.664;5.074;2023-08-01T04:51:23;3.50;;;0.77;;
44110;SDS011;29774;52.664;5.074;2023-08-01T04:53:49;5.05;;;1.30;;
44110;SDS011;29774;52.664;5.074;2023-08-01T04:56:16;3.83;;;0.93;;
44110;SDS011;29774;52.664;5.074;2023-08-01T04:58:42;2.10;;;0.60;;
44110;SDS011;29774;52.664;5.074;2023-08-01T05:01:07;1.80;;;0.77;;
44110;SDS011;29774;52.664;5.074;2023-08-01T05:03:33;3.08;;;0.70;;
44110;SDS011;29774;52.664;5.074;2023-08-01T05:05:59;5.82;;;0.90;;
44110;SDS011;29774;52.664;5.074;2023-08-01T05:08:24;4.43;;;1.20;;
44110;SDS011;29774;52.664;5.074;2023-08-01T05:10:50;1.98;;;0.73;;
44110;SDS011;29774;52.664;5.074;2023-08-01T05:13:15;6.75;;;1.73;;
44110;SDS011;29774;52.664;5.074;2023-08-01T05:15:44;4.60;;;1.20;;
44110;SDS011;29774;52.664;5.074;2023-08-01T05:18:12;4.43;;;1.15;;
44110;SDS011;29774;52.664;5.074;2023-08-01T05:20:38;5.35;;;0.90;;
44110;SDS011;29774;52.664;5.074;2023-08-01T05:23:04;6.47;;;1.30;;
44110;SDS011;29774;52.664;5.074;2023-08-01T05:25:29;3.58;;;1.08;;
44110;SDS011;29774;52.664;5.074;2023-08-01T05:27:55;2.30;;;0.80;;
44110;SDS011;29774;52.664;5.074;2023-08-01T05:30:21;6.20;;;1.25;;
44110;SDS011;29774;52.664;5.074;2023-08-01T05:32:46;3.42;;;1.13;;
44110;SDS011;29774;52.664;5.074;2023-08-01T05:35:12;6.60;;;1.52;;
44110;SDS011;29774;52.664;5.074;2023-08-01T05:37:38;7.75;;;1.60;;
44110;SDS011;29774;52.664;5.074;2023-08-01T05:40:04;5.30;;;1.20;;
44110;SDS011;29774;52.664;5.074;2023-08-01T05:42:30;7.88;;;1.45;;
44110;SDS011;29774;52.664;5.074;2023-08-01T05:44:55;3.78;;;1.05;;
44110;SDS011;29774;52.664;5.074;2023-08-01T05:47:21;6.07;;;1.85;;
44110;SDS011;29774;52.664;5.074;2023-08-01T05:49:47;5.15;;;1.60;;
44110;SDS011;29774;52.664;5.074;2023-08-01T05:52:13;3.80;;;1.88;;
44110;SDS011;29774;52.664;5.074;2023-08-01T05:54:39;3.65;;;1.23;;
44110;SDS011;29774;52.664;5.074;2023-08-01T05:57:05;2.97;;;0.75;;
44110;SDS011;29774;52.664;5.074;2023-08-01T05:59:31;4.13;;;1.77;;
44110;SDS011;29774;52.664;5.074;2023-08-01T06:01:56;3.17;;;1.63;;
44110;SDS011;29774;52.664;5.074;2023-08-01T06:04:22;4.47;;;1.40;;
44110;SDS011;29774;52.664;5.074;2023-08-01T06:06:48;4.35;;;1.40;;
44110;SDS011;29774;52.664;5.074;2023-08-01T06:09:13;3.53;;;1.48;;
44110;SDS011;29774;52.664;5.074;2023-08-01T06:11:39;3.53;;;1.17;;
44110;SDS011;29774;52.664;5.074;2023-08-01T06:14:05;3.55;;;1.20;;
44110;SDS011;29774;52.664;5.074;2023-08-01T06:16:31;2.97;;;1.10;;
44110;SDS011;29774;52.664;5.074;2023-08-01T06:18:57;3.72;;;1.30;;
44110;SDS011;29774;52.664;5.074;2023-08-01T06:21:23;4.63;;;1.90;;
44110;SDS011;29774;52.664;5.074;2023-08-01T06:23:49;3.97;;;1.45;;
44110;SDS011;29774;52.664;5.074;2023-08-01T06:26:14;3.03;;;1.40;;
44110;SDS011;29774;52.664;5.074;2023-08-01T06:28:40;2.50;;;1.25;;
44110;SDS011;29774;52.664;5.074;2023-08-01T06:31:06;2.35;;;1.33;;
44110;SDS011;29774;52.664;5.074;2023-08-01T06:33:32;4.25;;;1.40;;
44110;SDS011;29774;52.664;5.074;2023-08-01T06:35:57;3.75;;;1.73;;
44110;SDS011;29774;52.664;5.074;2023-08-01T06:38:23;4.63;;;1.50;;
44110;SDS011;29774;52.664;5.074;2023-08-01T06:40:49;3.83;;;1.40;;
44110;SDS011;29774;52.664;5.074;2023-08-01T06:43:14;4.05;;;1.38;;
44110;SDS011;29774;52.664;5.074;2023-08-01T06:45:40;3.35;;;1.23;;
44110;SDS011;29774;52.664;5.074;2023-08-01T06:48:05;5.07;;;1.40;;
44110;SDS011;29774;52.664;5.074;2023-08-01T06:50:31;3.38;;;1.38;;
44110;SDS011;29774;52.664;5.074;2023-08-01T06:52:57;2.47;;;1.30;;
44110;SDS011;29774;52.664;5.074;2023-08-01T06:55:22;3.88;;;1.35;;
44110;SDS011;29774;52.664;5.074;2023-08-01T06:57:48;3.53;;;1.38;;
44110;SDS011;29774;52.664;5.074;2023-08-01T07:00:13;4.32;;;1.10;;
44110;SDS011;29774;52.664;5.074;2023-08-01T07:02:39;4.43;;;1.15;;
44110;SDS011;29774;52.664;5.074;2023-08-01T07:05:05;5.72;;;1.60;;
44110;SDS011;29774;52.664;5.074;2023-08-01T07:07:31;1.55;;;1.23;;
44110;SDS011;29774;52.664;5.074;2023-08-01T07:09:56;2.55;;;1.35;;
44110;SDS011;29774;52.664;5.074;2023-08-01T07:12:22;3.97;;;1.55;;
44110;SDS011;29774;52.664;5.074;2023-08-01T07:14:47;3.20;;;1.23;;
44110;SDS011;29774;52.664;5.074;2023-08-01T07:17:13;4.75;;;1.48;;
44110;SDS011;29774;52.664;5.074;2023-08-01T07:19:39;3.80;;;1.30;;
44110;SDS011;29774;52.664;5.074;2023-08-01T07:22:04;2.53;;;1.20;;
44110;SDS011;29774;52.664;5.074;2023-08-01T07:24:30;4.35;;;1.50;;
44110;SDS011;29774;52.664;5.074;2023-08-01T07:26:55;2.55;;;1.33;;
44110;SDS011;29774;52.664;5.074;2023-08-01T07:29:21;5.60;;;1.40;;
44110;SDS011;29774;52.664;5.074;2023-08-01T07:31:47;3.97;;;1.08;;
44110;SDS011;29774;52.664;5.074;2023-08-01T07:34:12;4.82;;;1.65;;
44110;SDS011;29774;52.664;5.074;2023-08-01T07:36:38;5.07;;;1.50;;
44110;SDS011;29774;52.664;5.074;2023-08-01T07:39:04;3.85;;;1.38;;
44110;SDS011;29774;52.664;5.074;2023-08-01T07:41:30;3.78;;;1.58;;
44110;SDS011;29774;52.664;5.074;2023-08-01T07:43:55;2.90;;;1.30;;
44110;SDS011;29774;52.664;5.074;2023-08-01T07:46:21;2.95;;;1.08;;
44110;SDS011;29774;52.664;5.074;2023-08-01T07:48:46;4.72;;;1.77;;
44110;SDS011;29774;52.664;5.074;2023-08-01T07:51:14;2.00;;;1.17;;
44110;SDS011;29774;52.664;5.074;2023-08-01T07:53:39;2.00;;;1.27;;
44110;SDS011;29774;52.664;5.074;2023-08-01T07:56:05;3.13;;;1.20;;
44110;SDS011;29774;52.664;5.074;2023-08-01T07:58:33;3.20;;;1.60;;
44110;SDS011;29774;52.664;5.074;2023-08-01T08:01:02;3.17;;;0.85;;
44110;SDS011;29774;52.664;5.074;2023-08-01T08:03:31;3.42;;;1.60;;
44110;SDS011;29774;52.664;5.074;2023-08-01T08:05:57;3.05;;;1.27;;
44110;SDS011;29774;52.664;5.074;2023-08-01T08:08:23;3.75;;;1.50;;
44110;SDS011;29774;52.664;5.074;2023-08-01T08:10:49;1.95;;;1.30;;
44110;SDS011;29774;52.664;5.074;2023-08-01T08:13:15;3.88;;;1.45;;
44110;SDS011;29774;52.664;5.074;2023-08-01T08:15:41;2.92;;;1.00;;
44110;SDS011;29774;52.664;5.074;2023-08-01T08:18:06;4.72;;;1.48;;
44110;SDS011;29774;52.664;5.074;2023-08-01T08:20:34;4.53;;;1.35;;
44110;SDS011;29774;52.664;5.074;2023-08-01T08:23:07;3.55;;;1.45;;
44110;SDS011;29774;52.664;5.074;2023-08-01T08:25:33;2.97;;;1.52;;
44110;SDS011;29774;52.664;5.074;2023-08-01T08:27:59;3.42;;;2.00;;
44110;SDS011;29774;52.664;5.074;2023-08-01T08:30:24;3.28;;;1.25;;
44110;SDS011;29774;52.664;5.074;2023-08-01T08:32:50;2.70;;;1.15;;
44110;SDS011;29774;52.664;5.074;2023-08-01T08:35:15;4.35;;;1.55;;
44110;SDS011;29774;52.664;5.074;2023-08-01T08:37:41;2.53;;;1.42;;
44110;SDS011;29774;52.664;5.074;2023-08-01T08:40:07;5.07;;;1.30;;
44110;SDS011;29774;52.664;5.074;2023-08-01T08:42:33;2.97;;;0.95;;
44110;SDS011;29774;52.664;5.074;2023-08-01T08:45:00;2.65;;;1.17;;
44110;SDS011;29774;52.664;5.074;2023-08-01T08:47:27;2.65;;;1.20;;
44110;SDS011;29774;52.664;5.074;2023-08-01T08:49:55;3.90;;;1.20;;
44110;SDS011;29774;52.664;5.074;2023-08-01T08:52:25;1.67;;;1.05;;
44110;SDS011;29774;52.664;5.074;2023-08-01T08:54:51;2.33;;;1.00;;
44110;SDS011;29774;52.664;5.074;2023-08-01T08:57:17;2.83;;;1.35;;
44110;SDS011;29774;52.664;5.074;2023-08-01T08:59:44;2.33;;;1.27;;
44110;SDS011;29774;52.664;5.074;2023-08-01T09:02:11;2.33;;;1.20;;
44110;SDS011;29774;52.664;5.074;2023-08-01T09:04:39;2.40;;;1.10;;
44110;SDS011;29774;52.664;5.074;2023-08-01T09:07:08;1.40;;;0.88;;
44110;SDS011;29774;52.664;5.074;2023-08-01T09:09:36;1.73;;;0.90;;
44110;SDS011;29774;52.664;5.074;2023-08-01T09:12:02;2.35;;;0.90;;
44110;SDS011;29774;52.664;5.074;2023-08-01T09:14:28;3.90;;;1.60;;
44110;SDS011;29774;52.664;5.074;2023-08-01T09:16:54;5.05;;;1.35;;
44110;SDS011;29774;52.664;5.074;2023-08-01T09:19:20;1.88;;;1.27;;
44110;SDS011;29774;52.664;5.074;2023-08-01T09:21:47;3.33;;;1.05;;
44110;SDS011;29774;52.664;5.074;2023-08-01T09:24:14;3.33;;;1.05;;
44110;SDS011;29774;52.664;5.074;2023-08-01T09:26:44;2.90;;;1.00;;
44110;SDS011;29774;52.664;5.074;2023-08-01T09:29:10;2.83;;;1.05;;
44110;SDS011;29774;52.664;5.074;2023-08-01T09:31:37;1.83;;;0.98;;
44110;SDS011;29774;52.664;5.074;2023-08-01T09:34:17;5.35;;;1.40;;
44110;SDS011;29774;52.664;5.074;2023-08-01T09:36:47;2.50;;;1.02;;
44110;SDS011;29774;52.664;5.074;2023-08-01T09:39:17;2.88;;;1.10;;
44110;SDS011;29774;52.664;5.074;2023-08-01T09:41:44;2.72;;;0.80;;
44110;SDS011;29774;52.664;5.074;2023-08-01T09:44:15;2.78;;;1.10;;
44110;SDS011;29774;52.664;5.074;2023-08-01T09:46:41;6.32;;;1.55;;
44110;SDS011;29774;52.664;5.074;2023-08-01T09:49:09;2.47;;;1.20;;
44110;SDS011;29774;52.664;5.074;2023-08-01T09:51:47;3.75;;;1.70;;
44110;SDS011;29774;52.664;5.074;2023-08-01T09:54:14;3.78;;;1.30;;
44110;SDS011;29774;52.664;5.074;2023-08-01T09:56:40;4.68;;;1.08;;
44110;SDS011;29774;52.664;5.074;2023-08-01T09:59:10;2.53;;;1.20;;
44110;SDS011;29774;52.664;5.074;2023-08-01T10:01:36;2.80;;;1.30;;
44110;SDS011;29774;52.664;5.074;2023-08-01T10:04:04;3.38;;;1.40;;
44110;SDS011;29774;52.664;5.074;2023-08-01T10:06:31;2.83;;;0.90;;
44110;SDS011;29774;52.664;5.074;2023-08-01T10:09:02;2.88;;;1.23;;
44110;SDS011;29774;52.664;5.074;2023-08-01T10:11:28;2.40;;;1.00;;
44110;SDS011;29774;52.664;5.074;2023-08-01T10:13:58;3.75;;;1.10;;
44110;SDS011;29774;52.664;5.074;2023-08-01T10:16:27;3.03;;;1.10;;
44110;SDS011;29774;52.664;5.074;2023-08-01T10:18:53;4.82;;;1.38;;
44110;SDS011;29774;52.664;5.074;2023-08-01T10:21:19;2.33;;;1.10;;
44110;SDS011;29774;52.664;5.074;2023-08-01T10:23:46;2.95;;;1.30;;
44110;SDS011;29774;52.664;5.074;2023-08-01T10:26:12;4.32;;;1.40;;
44110;SDS011;29774;52.664;5.074;2023-08-01T10:28:48;5.28;;;1.50;;
44110;SDS011;29774;52.664;5.074;2023-08-01T10:31:16;1.27;;;0.73;;
44110;SDS011;29774;52.664;5.074;2023-08-01T10:33:44;1.50;;;0.90;;
44110;SDS011;29774;52.664;5.074;2023-08-01T10:36:18;2.65;;;1.00;;
44110;SDS011;29774;52.664;5.074;2023-08-01T10:41:26;2.08;;;0.82;;
44110;SDS011;29774;52.664;5.074;2023-08-01T10:44:06;1.73;;;1.20;;
44110;SDS011;29774;52.664;5.074;2023-08-01T10:52:00;2.33;;;0.80;;
44110;SDS011;29774;52.664;5.074;2023-08-01T10:54:26;1.95;;;0.95;;
44110;SDS011;29774;52.664;5.074;2023-08-01T10:56:52;3.10;;;1.10;;
44110;SDS011;29774;52.664;5.074;2023-08-01T10:59:21;2.95;;;1.02;;
44110;SDS011;29774;52.664;5.074;2023-08-01T11:01:48;4.70;;;1.13;;
44110;SDS011;29774;52.664;5.074;2023-08-01T11:04:19;2.63;;;1.00;;
44110;SDS011;29774;52.664;5.074;2023-08-01T11:06:49;1.38;;;0.88;;
44110;SDS011;29774;52.664;5.074;2023-08-01T11:09:22;1.20;;;0.95;;
44110;SDS011;29774;52.664;5.074;2023-08-01T11:11:52;4.68;;;1.20;;
44110;SDS011;29774;52.664;5.074;2023-08-01T11:14:20;1.77;;;0.90;;
44110;SDS011;29774;52.664;5.074;2023-08-01T11:16:47;1.40;;;0.80;;
44110;SDS011;29774;52.664;5.074;2023-08-01T11:19:18;2.03;;;1.23;;
44110;SDS011;29774;52.664;5.074;2023-08-01T11:21:48;1.85;;;1.10;;
44110;SDS011;29774;52.664;5.074;2023-08-01T11:24:13;5.30;;;1.02;;
44110;SDS011;29774;52.664;5.074;2023-08-01T11:26:43;1.40;;;1.05;;
44110;SDS011;29774;52.664;5.074;2023-08-01T11:29:10;1.95;;;0.70;;
44110;SDS011;29774;52.664;5.074;2023-08-01T11:31:36;1.25;;;0.75;;
44110;SDS011;29774;52.664;5.074;2023-08-01T11:34:02;1.67;;;0.73;;
44110;SDS011;29774;52.664;5.074;2023-08-01T11:36:28;2.45;;;0.85;;
44110;SDS011;29774;52.664;5.074;2023-08-01T11:38:55;3.17;;;0.90;;
44110;SDS011;29774;52.664;5.074;2023-08-01T11:41:28;1.92;;;1.08;;
44110;SDS011;29774;52.664;5.074;2023-08-01T11:43:54;1.88;;;0.98;;
44110;SDS011;29774;52.664;5.074;2023-08-01T11:46:21;1.95;;;1.02;;
44110;SDS011;29774;52.664;5.074;2023-08-01T11:48:47;2.85;;;0.90;;
44110;SDS011;29774;52.664;5.074;2023-08-01T11:51:15;3.15;;;0.90;;
44110;SDS011;29774;52.664;5.074;2023-08-01T11:53:40;1.02;;;0.90;;
44110;SDS011;29774;52.664;5.074;2023-08-01T11:56:06;1.90;;;0.95;;
44110;SDS011;29774;52.664;5.074;2023-08-01T12:03:28;1.40;;;0.80;;
44110;SDS011;29774;52.664;5.074;2023-08-01T12:06:06;2.50;;;0.68;;
44110;SDS011;29774;52.664;5.074;2023-08-01T12:08:36;1.45;;;0.80;;
44110;SDS011;29774;52.664;5.074;2023-08-01T12:11:02;1.92;;;0.90;;
44110;SDS011;29774;52.664;5.074;2023-08-01T12:13:28;1.60;;;0.70;;
44110;SDS011;29774;52.664;5.074;2023-08-01T12:15:54;3.13;;;0.88;;
44110;SDS011;29774;52.664;5.074;2023-08-01T12:18:23;2.10;;;0.70;;
44110;SDS011;29774;52.664;5.074;2023-08-01T12:20:54;1.75;;;0.88;;
44110;SDS011;29774;52.664;5.074;2023-08-01T12:23:20;3.40;;;0.90;;
44110;SDS011;29774;52.664;5.074;2023-08-01T12:25:46;1.73;;;0.80;;
44110;SDS011;29774;52.664;5.074;2023-08-01T12:28:15;1.38;;;0.95;;
44110;SDS011;29774;52.664;5.074;2023-08-01T12:30:41;0.82;;;0.65;;
44110;SDS011;29774;52.664;5.074;2023-08-01T12:33:08;1.08;;;0.63;;
44110;SDS011;29774;52.664;5.074;2023-08-01T12:35:35;1.88;;;0.95;;
44110;SDS011;29774;52.664;5.074;2023-08-01T12:38:04;4.15;;;1.20;;
44110;SDS011;29774;52.664;5.074;2023-08-01T12:40:29;2.35;;;0.98;;
44110;SDS011;29774;52.664;5.074;2023-08-01T12:42:55;2.60;;;0.85;;
44110;SDS011;29774;52.664;5.074;2023-08-01T12:45:21;1.65;;;0.82;;
44110;SDS011;29774;52.664;5.074;2023-08-01T12:47:48;3.15;;;0.98;;
44110;SDS011;29774;52.664;5.074;2023-08-01T12:50:14;2.65;;;0.85;;
44110;SDS011;29774;52.664;5.074;2023-08-01T12:52:40;1.55;;;0.70;;
44110;SDS011;29774;52.664;5.074;2023-08-01T12:55:06;2.35;;;0.70;;
44110;SDS011;29774;52.664;5.074;2023-08-01T12:57:32;2.42;;;0.80;;
44110;SDS011;29774;52.664;5.074;2023-08-01T12:59:58;1.38;;;1.15;;
44110;SDS011;29774;52.664;5.074;2023-08-01T13:02:23;0.93;;;0.65;;
44110;SDS011;29774;52.664;5.074;2023-08-01T13:04:49;0.73;;;0.47;;
44110;SDS011;29774;52.664;5.074;2023-08-01T13:07:14;2.42;;;0.68;;
44110;SDS011;29774;52.664;5.074;2023-08-01T13:09:40;1.20;;;0.55;;
44110;SDS011;29774;52.664;5.074;2023-08-01T13:12:06;1.75;;;1.13;;
44110;SDS011;29774;52.664;5.074;2023-08-01T13:14:32;1.92;;;0.70;;
44110;SDS011;29774;52.664;5.074;2023-08-01T13:16:58;1.55;;;0.80;;
44110;SDS011;29774;52.664;5.074;2023-08-01T13:19:24;2.55;;;0.90;;
44110;SDS011;29774;52.664;5.074;2023-08-01T13:21:50;2.40;;;0.90;;
44110;SDS011;29774;52.664;5.074;2023-08-01T13:24:16;1.35;;;0.60;;
44110;SDS011;29774;52.664;5.074;2023-08-01T13:26:41;1.40;;;0.52;;
44110;SDS011;29774;52.664;5.074;2023-08-01T13:29:07;4.03;;;1.13;;
44110;SDS011;29774;52.664;5.074;2023-08-01T13:31:32;1.08;;;0.60;;
44110;SDS011;29774;52.664;5.074;2023-08-01T13:33:58;3.20;;;0.98;;
44110;SDS011;29774;52.664;5.074;2023-08-01T13:36:24;1.42;;;0.55;;
44110;SDS011;29774;52.664;5.074;2023-08-01T13:38:50;1.77;;;0.60;;
44110;SDS011;29774;52.664;5.074;2023-08-01T13:41:15;0.93;;;0.50;;
44110;SDS011;29774;52.664;5.074;2023-08-01T13:43:41;1.38;;;0.95;;
44110;SDS011;29774;52.664;5.074;2023-08-01T13:46:13;1.75;;;0.85;;
44110;SDS011;29774;52.664;5.074;2023-08-01T13:48:44;2.20;;;0.82;;
44110;SDS011;29774;52.664;5.074;2023-08-01T13:51:11;1.23;;;0.65;;
44110;SDS011;29774;52.664;5.074;2023-08-01T13:53:37;2.25;;;0.85;;
44110;SDS011;29774;52.664;5.074;2023-08-01T13:56:15;0.93;;;0.57;;
44110;SDS011;29774;52.664;5.074;2023-08-01T13:58:40;2.85;;;0.70;;
44110;SDS011;29774;52.664;5.074;2023-08-01T14:01:07;2.03;;;0.70;;
44110;SDS011;29774;52.664;5.074;2023-08-01T14:03:34;1.58;;;0.60;;
44110;SDS011;29774;52.664;5.074;2023-08-01T14:06:09;1.75;;;0.65;;
44110;SDS011;29774;52.664;5.074;2023-08-01T14:08:39;2.30;;;1.10;;
44110;SDS011;29774;52.664;5.074;2023-08-01T14:11:08;2.70;;;1.23;;
44110;SDS011;29774;52.664;5.074;2023-08-01T14:13:34;2.10;;;0.85;;
44110;SDS011;29774;52.664;5.074;2023-08-01T14:16:01;2.42;;;0.82;;
44110;SDS011;29774;52.664;5.074;2023-08-01T14:18:30;2.58;;;0.80;;
44110;SDS011;29774;52.664;5.074;2023-08-01T14:20:56;1.33;;;0.65;;
44110;SDS011;29774;52.664;5.074;2023-08-01T14:23:22;1.40;;;0.75;;
44110;SDS011;29774;52.664;5.074;2023-08-01T14:25:48;1.90;;;0.70;;
44110;SDS011;29774;52.664;5.074;2023-08-01T14:28:14;1.52;;;0.73;;
44110;SDS011;29774;52.664;5.074;2023-08-01T14:30:40;1.30;;;0.80;;
44110;SDS011;29774;52.664;5.074;2023-08-01T14:33:06;2.38;;;0.80;;
44110;SDS011;29774;52.664;5.074;2023-08-01T14:35:36;1.90;;;0.70;;
44110;SDS011;29774;52.664;5.074;2023-08-01T14:38:02;2.42;;;0.88;;
44110;SDS011;29774;52.664;5.074;2023-08-01T14:40:28;0.90;;;0.60;;
44110;SDS011;29774;52.664;5.074;2023-08-01T14:42:55;2.20;;;0.60;;
44110;SDS011;29774;52.664;5.074;2023-08-01T14:45:21;1.90;;;1.00;;
44110;SDS011;29774;52.664;5.074;2023-08-01T14:47:47;1.77;;;0.88;;
44110;SDS011;29774;52.664;5.074;2023-08-01T14:50:13;1.55;;;0.80;;
44110;SDS011;29774;52.664;5.074;2023-08-01T14:52:39;2.42;;;0.63;;
44110;SDS011;29774;52.664;5.074;2023-08-01T14:55:05;1.52;;;0.88;;
44110;SDS011;29774;52.664;5.074;2023-08-01T14:57:32;2.92;;;1.00;;